Time;durP1;ratioP1;P1;durP2;ratioP2;P2;SDS_P1;SDS_P2;PMS_P1;PMS_P2;Temp;Humidity;BMP_temperature;BMP_pressure;BME280_temperature;BME280_humidity;BME280_pressure;Samples;Min_cycle;Max_cycle;Signal;HPM_P1;HPM_P2
2023/10/16 00:01:55;;;;;;;4.95;2.08;;;;;;;7.78;66.52;101386.31;4180989;28;20540;-63
2023/10/16 00:03:58;;;;;;;5.78;2.35;;;;;;;7.82;66.45;101383.03;4173822;28;20410;-63
2023/10/16 00:06:05;;;;;;;6.60;2.80;;;;;;;7.87;66.28;101384.13;4179067;28;20045;-63
2023/10/16 00:08:08;;;;;;;6.82;2.53;;;;;;;7.90;66.12;101381.66;4180300;28;20053;-63
2023/10/16 00:10:12;;;;;;;5.95;2.00;;;;;;;7.84;66.43;101378.81;4180238;28;20453;-65
2023/10/16 00:12:19;;;;;;;6.13;2.65;;;;;;;7.81;66.89;101376.09;4174592;28;20426;-63
2023/10/16 00:14:24;;;;;;;9.00;3.20;;;;;;;7.78;66.57;101383.75;4177541;28;20364;-65
2023/10/16 00:16:30;;;;;;;5.97;2.75;;;;;;;7.80;66.81;101382.97;4179256;28;20059;-64
2023/10/16 00:18:33;;;;;;;5.93;2.25;;;;;;;7.75;67.10;101381.91;4180338;28;20037;-64
2023/10/16 00:20:36;;;;;;;4.13;2.40;;;;;;;7.72;67.66;101386.94;4174429;28;20526;-63
2023/10/16 00:22:39;;;;;;;7.15;2.53;;;;;;;7.69;67.72;101382.56;4177085;28;20033;-63
2023/10/16 00:24:45;;;;;;;11.10;4.40;;;;;;;7.64;67.58;101381.47;4176612;28;20115;-63
2023/10/16 00:26:49;;;;;;;5.82;2.75;;;;;;;7.58;67.87;101375.16;4179309;28;20139;-63
2023/10/16 00:29:02;;;;;;;6.50;3.25;;;;;;;7.56;67.68;101379.38;4143156;28;20141;-64
2023/10/16 00:31:08;;;;;;;6.03;2.83;;;;;;;7.60;67.38;101377.00;4179958;28;20029;-64
2023/10/16 00:33:11;;;;;;;7.15;3.05;;;;;;;7.67;67.62;101379.00;4181415;28;20094;-64
2023/10/16 00:35:16;;;;;;;5.22;2.75;;;;;;;7.71;67.36;101374.84;4179961;28;20045;-65
2023/10/16 00:37:21;;;;;;;8.35;2.60;;;;;;;7.76;66.86;101375.91;4177805;28;20052;-65
2023/10/16 00:39:28;;;;;;;7.00;3.40;;;;;;;7.77;67.29;101371.59;4154693;28;20534;-65
2023/10/16 00:41:31;;;;;;;6.47;3.35;;;;;;;7.77;66.77;101364.75;4156458;28;20497;-64
2023/10/16 00:43:34;;;;;;;6.95;3.53;;;;;;;7.72;67.33;101365.38;4162280;28;20478;-65
2023/10/16 00:45:46;;;;;;;9.23;2.92;;;;;;;7.71;66.75;101371.38;4159488;28;20124;-63
2023/10/16 00:47:50;;;;;;;7.80;3.50;;;;;;;7.73;66.75;101369.75;4160404;28;20033;-64
2023/10/16 00:49:54;;;;;;;11.00;3.83;;;;;;;7.69;66.82;101367.03;4161490;28;20495;-64
2023/10/16 00:51:56;;;;;;;8.10;3.47;;;;;;;7.74;65.85;101359.44;4162319;28;20036;-64
2023/10/16 00:53:59;;;;;;;7.35;3.40;;;;;;;7.76;66.16;101350.03;4160740;28;20319;-64
2023/10/16 00:56:08;;;;;;;6.20;3.38;;;;;;;7.76;66.32;101350.03;4161488;28;20092;-64
2023/10/16 00:58:10;;;;;;;6.80;3.30;;;;;;;7.80;65.90;101344.16;4160445;28;20041;-64
2023/10/16 01:00:14;;;;;;;7.43;3.63;;;;;;;7.83;65.96;101340.81;4181649;28;20135;-63
2023/10/16 01:02:26;;;;;;;8.20;3.43;;;;;;;7.80;65.73;101335.53;4175473;28;20040;-63
2023/10/16 01:04:30;;;;;;;8.35;3.40;;;;;;;7.85;65.87;101327.09;4160303;28;20033;-64
2023/10/16 01:06:36;;;;;;;8.05;3.78;;;;;;;7.85;65.80;101329.66;4174650;28;20051;-64
2023/10/16 01:08:45;;;;;;;6.47;3.08;;;;;;;7.92;65.20;101317.88;4174001;28;20038;-63
2023/10/16 01:10:48;;;;;;;5.65;2.70;;;;;;;7.96;65.53;101324.94;4178807;28;20037;-63
2023/10/16 01:12:55;;;;;;;5.78;3.17;;;;;;;8.01;65.72;101330.28;4159372;28;20522;-63
2023/10/16 01:14:58;;;;;;;8.10;3.35;;;;;;;8.07;65.40;101327.06;4161895;28;20042;-63
2023/10/16 01:17:00;;;;;;;8.20;3.67;;;;;;;8.04;65.77;101325.22;4178583;28;20041;-63
2023/10/16 01:19:06;;;;;;;6.00;2.63;;;;;;;7.97;65.80;101321.53;4158538;28;20060;-63
2023/10/16 01:21:13;;;;;;;8.98;3.28;;;;;;;7.86;66.23;101317.63;4157540;28;20041;-63
2023/10/16 01:23:18;;;;;;;6.75;3.00;;;;;;;7.81;66.11;101322.63;4162047;28;20033;-64
2023/10/16 01:25:21;;;;;;;5.30;3.17;;;;;;;7.76;66.24;101323.28;4178351;28;20029;-63
2023/10/16 01:27:29;;;;;;;9.13;3.50;;;;;;;7.74;66.38;101327.47;4183350;28;20029;-65
2023/10/16 01:29:35;;;;;;;5.05;3.00;;;;;;;7.68;66.50;101331.63;4161214;28;20041;-63
2023/10/16 01:31:40;;;;;;;5.43;2.72;;;;;;;7.69;66.39;101328.22;4161101;28;20038;-64
2023/10/16 01:33:45;;;;;;;5.35;3.05;;;;;;;7.68;66.37;101317.78;4158717;28;20058;-64
2023/10/16 01:35:47;;;;;;;6.32;3.15;;;;;;;7.60;66.33;101317.47;4161523;28;20034;-63
2023/10/16 01:37:52;;;;;;;6.80;2.90;;;;;;;7.55;66.62;101320.69;4176596;28;20529;-64
2023/10/16 01:40:12;;;;;;;6.78;2.85;;;;;;;7.55;67.16;101315.50;4176164;28;20105;-64
2023/10/16 01:42:16;;;;;;;7.22;2.92;;;;;;;7.51;66.95;101324.88;4158035;28;20124;-64
2023/10/16 01:44:19;;;;;;;6.20;2.72;;;;;;;7.47;67.47;101328.16;4161869;28;20033;-64
2023/10/16 01:46:22;;;;;;;9.45;3.25;;;;;;;7.44;67.16;101328.91;4160958;28;20044;-64
2023/10/16 01:48:27;;;;;;;6.38;2.75;;;;;;;7.40;66.94;101329.59;4158447;28;20037;-63
2023/10/16 01:50:30;;;;;;;4.53;2.33;;;;;;;7.37;67.18;101328.59;4179516;28;20068;-64
2023/10/16 01:52:34;;;;;;;4.95;2.63;;;;;;;7.33;67.51;101325.00;4174821;28;20473;-63
2023/10/16 01:54:40;;;;;;;7.93;2.95;;;;;;;7.28;67.15;101322.22;4161818;28;20502;-64
2023/10/16 01:56:44;;;;;;;4.10;2.38;;;;;;;7.24;66.95;101329.78;4181099;28;20525;-64
2023/10/16 01:58:49;;;;;;;5.53;2.50;;;;;;;7.15;67.34;101328.59;4180145;28;20041;-63
2023/10/16 02:00:52;;;;;;;5.45;2.75;;;;;;;7.12;67.69;101332.75;4142267;28;20046;-64
2023/10/16 02:02:57;;;;;;;7.35;3.10;;;;;;;7.12;67.53;101340.50;4178566;28;20055;-63
2023/10/16 02:04:59;;;;;;;;;;;;;;;7.01;67.51;101333.97;4162226;28;20044;-63
2023/10/16 02:07:02;;;;;;;5.28;2.42;;;;;;;6.90;67.68;101326.66;4161690;28;20314;-64
2023/10/16 02:09:12;;;;;;;7.47;2.88;;;;;;;6.88;67.98;101324.81;4177641;28;20037;-64
2023/10/16 02:11:16;;;;;;;3.80;2.10;;;;;;;6.95;67.55;101327.75;4176248;28;20041;-63
2023/10/16 02:13:21;;;;;;;8.43;3.10;;;;;;;6.97;67.26;101323.50;4178071;28;20041;-63
2023/10/16 02:15:22;;;;;;;3.80;2.50;;;;;;;6.98;67.34;101321.81;4164192;28;20096;-64
2023/10/16 02:17:26;;;;;;;5.85;2.88;;;;;;;6.98;67.40;101333.03;4175625;28;20064;-63
2023/10/16 02:19:31;;;;;;;5.47;2.88;;;;;;;7.03;67.23;101332.38;4165065;28;20060;-63
2023/10/16 02:21:35;;;;;;;5.88;2.47;;;;;;;6.96;66.95;101324.31;4162796;28;20128;-63
2023/10/16 02:23:38;;;;;;;4.72;2.58;;;;;;;6.96;67.06;101333.78;4157573;28;20488;-65
2023/10/16 02:25:41;;;;;;;6.03;2.30;;;;;;;6.86;66.73;101317.00;4163245;28;20039;-64
2023/10/16 02:27:44;;;;;;;7.22;2.63;;;;;;;6.84;67.38;101321.22;4163507;28;20037;-63
2023/10/16 02:29:51;;;;;;;4.63;2.60;;;;;;;6.82;67.22;101330.63;4163734;28;20088;-63
2023/10/16 02:31:57;;;;;;;7.43;2.67;;;;;;;6.84;67.22;101338.44;4162726;28;20052;-63
2023/10/16 02:34:12;;;;;;;5.15;2.78;;;;;;;6.87;67.05;101323.94;4178262;28;20025;-63
2023/10/16 02:36:15;;;;;;;7.95;2.60;;;;;;;6.86;67.40;101318.69;4178875;28;20064;-63
2023/10/16 02:38:27;;;;;;;7.40;2.88;;;;;;;6.82;68.08;101321.16;4157736;28;20128;-63
2023/10/16 02:40:32;;;;;;;6.88;2.60;;;;;;;6.84;67.86;101316.06;4178587;28;20095;-63
2023/10/16 02:42:38;;;;;;;6.40;3.22;;;;;;;6.76;68.37;101318.31;4163026;28;20115;-64
2023/10/16 02:44:43;;;;;;;6.40;2.83;;;;;;;6.70;68.48;101317.16;4145821;28;20061;-63
2023/10/16 02:46:46;;;;;;;5.40;2.72;;;;;;;6.73;67.90;101315.59;4162236;28;20542;-64
2023/10/16 02:48:50;;;;;;;7.72;2.78;;;;;;;6.72;67.92;101312.94;4164787;28;20038;-65
2023/10/16 02:50:54;;;;;;;;;;;;;;;6.58;69.30;101318.38;4179959;28;21251;-63
2023/10/16 02:52:57;;;;;;;7.88;3.40;;;;;;;6.60;68.81;101311.59;4181068;28;19920;-63
2023/10/16 02:55:00;;;;;;;5.43;3.38;;;;;;;6.59;68.24;101312.41;4181106;28;20033;-63
2023/10/16 02:57:03;;;;;;;8.55;3.67;;;;;;;6.59;68.68;101319.28;4164545;28;20068;-63
2023/10/16 02:59:08;;;;;;;9.32;3.70;;;;;;;6.60;68.20;101313.25;4164513;28;20041;-63
2023/10/16 03:01:15;;;;;;;7.78;3.50;;;;;;;6.56;68.63;101312.25;4182251;28;20090;-64
2023/10/16 03:03:20;;;;;;;6.18;3.80;;;;;;;6.61;68.45;101323.69;4164434;28;20033;-63
2023/10/16 03:05:25;;;;;;;6.35;4.18;;;;;;;6.61;68.98;101304.72;4164608;28;20041;-63
2023/10/16 03:07:28;;;;;;;8.13;4.05;;;;;;;6.64;68.99;101305.75;4178103;28;20040;-63
2023/10/16 03:09:31;;;;;;;9.57;3.75;;;;;;;6.65;68.34;101301.44;4164400;28;20488;-63
2023/10/16 03:11:34;;;;;;;9.18;3.42;;;;;;;6.64;68.26;101300.56;4182227;28;20467;-64
2023/10/16 03:13:37;;;;;;;4.78;2.88;;;;;;;6.64;68.30;101305.75;4182069;28;20029;-63
2023/10/16 03:15:43;;;;;;;4.95;2.90;;;;;;;6.70;68.36;101306.81;4164483;28;20453;-63
2023/10/16 03:17:50;;;;;;;5.72;3.00;;;;;;;6.68;68.64;101305.88;4181607;28;20056;-63
2023/10/16 03:19:55;;;;;;;8.15;3.08;;;;;;;6.66;68.59;101307.50;4162537;28;20041;-63
2023/10/16 03:22:01;;;;;;;4.85;2.80;;;;;;;6.56;68.22;101312.25;4181920;28;20044;-63
2023/10/16 03:24:07;;;;;;;5.18;2.72;;;;;;;6.48;68.72;101308.44;4164108;28;20026;-63
2023/10/16 03:26:18;;;;;;;7.22;3.15;;;;;;;6.40;68.80;101308.13;4177901;28;20483;-63
2023/10/16 03:28:21;;;;;;;6.63;2.78;;;;;;;6.38;68.90;101314.91;4179965;28;20437;-63
2023/10/16 03:30:27;;;;;;;7.70;3.17;;;;;;;6.40;69.01;101307.25;4181735;28;20687;-63
2023/10/16 03:32:33;;;;;;;7.78;3.13;;;;;;;6.42;68.94;101314.22;4164133;28;20045;-63
2023/10/16 03:34:37;;;;;;;6.35;3.45;;;;;;;6.44;68.66;101304.00;4177259;28;20029;-63
2023/10/16 03:36:41;;;;;;;7.40;4.05;;;;;;;6.44;68.48;101301.41;4163344;28;20040;-62
2023/10/16 03:38:43;;;;;;;6.70;3.47;;;;;;;6.40;68.91;101302.94;4179417;28;20041;-61
2023/10/16 03:40:50;;;;;;;7.35;3.45;;;;;;;6.44;69.01;101311.72;4179950;28;20126;-63
2023/10/16 03:42:54;;;;;;;7.60;3.72;;;;;;;6.44;69.24;101307.44;4175966;28;20047;-63
2023/10/16 03:44:57;;;;;;;8.40;3.92;;;;;;;6.45;69.28;101313.47;4177780;28;20036;-64
2023/10/16 03:47:00;;;;;;;7.95;3.65;;;;;;;6.47;69.59;101317.03;4180356;28;20039;-63
2023/10/16 03:49:03;;;;;;;6.45;3.33;;;;;;;6.49;69.15;101309.34;4179381;28;20045;-63
2023/10/16 03:51:07;;;;;;;5.97;3.63;;;;;;;6.47;68.80;101317.03;4178172;28;20040;-63
2023/10/16 03:53:13;;;;;;;6.40;3.40;;;;;;;6.44;68.97;101317.78;4177704;28;20049;-63
2023/10/16 03:55:22;;;;;;;8.13;4.07;;;;;;;6.41;69.25;101312.47;4175846;28;20083;-63
2023/10/16 03:57:26;;;;;;;9.15;3.95;;;;;;;6.38;69.40;101314.91;4177013;28;20068;-63
2023/10/16 03:59:29;;;;;;;5.72;3.38;;;;;;;6.41;69.46;101312.47;4180541;28;20483;-62
2023/10/16 04:01:37;;;;;;;7.38;3.50;;;;;;;6.39;69.90;101308.03;4177750;28;20120;-63
2023/10/16 04:03:47;;;;;;;6.50;3.67;;;;;;;6.42;69.59;101313.34;4177276;28;20075;-63
2023/10/16 04:05:51;;;;;;;6.72;3.17;;;;;;;6.41;69.66;101319.31;4180817;28;20030;-64
2023/10/16 04:07:54;;;;;;;5.97;3.55;;;;;;;6.42;69.29;101313.34;4175744;28;20443;-63
2023/10/16 04:10:21;;;;;;;5.82;3.67;;;;;;;6.45;69.65;101323.81;4179480;28;20389;-62
2023/10/16 04:12:21;;;;;;;8.10;4.15;;;;;;;6.47;69.28;101319.63;4174614;28;20175;-63
2023/10/16 04:14:44;;;;;;;7.65;4.72;;;;;;;6.50;69.51;101311.09;4174125;28;20471;-63
2023/10/16 04:16:54;;;;;;;7.93;4.20;;;;;;;6.41;69.37;101301.25;4177587;28;20394;-63
2023/10/16 04:19:09;;;;;;;8.13;3.90;;;;;;;6.36;69.82;101303.63;4177892;28;20605;-63
2023/10/16 04:23:37;;;;;;;6.55;3.97;;;;;;;6.25;70.18;101300.56;4177167;28;20556;-63
2023/10/16 04:26:25;;;;;;;7.80;4.55;;;;;;;6.28;70.27;101294.66;4174770;28;20125;-63
2023/10/16 04:28:18;;;;;;;9.50;5.13;;;;;;;6.23;69.94;101288.41;4175348;28;20037;-62
2023/10/16 04:30:39;;;;;;;7.72;4.25;;;;;;;6.19;70.09;101287.38;4176219;28;20124;-62
2023/10/16 04:32:56;;;;;;;9.65;4.30;;;;;;;6.19;70.24;101283.91;4176950;28;20064;-62
2023/10/16 04:35:03;;;;;;;9.07;4.45;;;;;;;6.19;70.07;101289.97;4178511;28;20037;-62
2023/10/16 04:37:29;;;;;;;6.90;4.60;;;;;;;6.20;70.14;101290.84;4177169;28;20044;-61
2023/10/16 04:47:00;;;;;;;9.95;5.82;;;;;;;6.12;69.61;101287.91;4176553;28;20051;-62
2023/10/16 04:49:04;;;;;;;12.32;6.75;;;;;;;6.15;69.79;101287.16;4175740;28;20033;-64
2023/10/16 04:51:17;;;;;;;10.02;6.85;;;;;;;6.13;69.83;101289.66;4162219;28;20037;-64
2023/10/16 04:53:22;;;;;;;12.23;5.60;;;;;;;6.06;70.07;101278.19;4160413;28;20044;-63
2023/10/16 04:55:54;;;;;;;8.55;5.63;;;;;;;6.08;69.85;101275.69;4177445;28;20040;-63
2023/10/16 04:58:27;;;;;;;10.45;6.05;;;;;;;6.09;70.09;101277.47;4177270;28;20029;-63
2023/10/16 05:02:52;;;;;;;;;;;;;;;5.81;70.07;101286.47;4171073;28;20052;-62
2023/10/16 05:07:37;;;;;;;8.15;3.92;;;;;;;5.85;70.15;101278.03;4166942;28;20063;-62
2023/10/16 05:15:20;;;;;;;7.28;3.97;;;;;;;5.83;70.09;101271.94;4175838;28;20083;-62
2023/10/16 05:17:19;;;;;;;6.50;3.80;;;;;;;5.76;70.26;101268.16;4160967;28;20068;-62
2023/10/16 05:19:43;;;;;;;7.95;3.72;;;;;;;5.81;70.44;101265.84;4176186;28;20475;-62
2023/10/16 05:22:02;;;;;;;10.65;4.57;;;;;;;5.81;69.82;101271.00;4177159;28;20102;-62
2023/10/16 06:14:47;;;;;;;9.20;4.38;;;;;;;5.77;69.78;101277.69;4176742;28;20731;-63
2023/10/16 06:16:53;;;;;;;9.25;3.63;;;;;;;5.83;69.75;101281.38;4143179;28;20141;-63
2023/10/16 06:18:55;;;;;;;10.65;3.53;;;;;;;5.84;69.66;101284.03;4148232;28;20065;-64
2023/10/16 06:21:00;;;;;;;8.05;3.28;;;;;;;5.84;69.87;101286.63;4148767;28;20045;-62
2023/10/16 06:23:04;;;;;;;7.53;3.70;;;;;;;5.92;69.94;101289.53;4146476;28;20120;-64
2023/10/16 06:25:10;;;;;;;7.78;4.68;;;;;;;6.00;69.60;101288.25;4147645;28;20072;-63
2023/10/16 06:27:19;;;;;;;6.85;4.18;;;;;;;6.05;69.58;101289.31;4147742;28;20034;-66
2023/10/16 06:29:24;;;;;;;11.07;4.65;;;;;;;6.16;69.66;101288.94;4148879;28;20116;-66
2023/10/16 06:31:27;;;;;;;10.65;5.07;;;;;;;6.19;69.79;101283.91;4149975;28;20076;-65
2023/10/16 06:33:30;;;;;;;6.35;4.20;;;;;;;6.22;69.81;101282.34;4149590;28;20061;-65
2023/10/16 06:35:34;;;;;;;9.07;5.30;;;;;;;6.29;70.38;101288.66;4150978;28;20030;-64
2023/10/16 06:37:41;;;;;;;15.43;9.07;;;;;;;6.36;69.93;101282.09;4150877;28;20137;-63
2023/10/16 06:39:45;;;;;;;14.65;7.63;;;;;;;6.51;69.61;101281.88;4148012;28;20040;-64
2023/10/16 06:41:46;;;;;;;11.68;6.45;;;;;;;6.43;69.85;101269.50;4146569;28;20052;-64
2023/10/16 06:43:50;;;;;;;13.60;6.38;;;;;;;6.48;69.50;101272.28;4145665;28;20108;-64
2023/10/16 06:45:56;;;;;;;12.10;7.00;;;;;;;6.53;69.48;101273.38;4149677;28;20038;-64
2023/10/16 06:47:59;;;;;;;11.85;6.97;;;;;;;6.51;69.54;101285.31;4149564;28;20056;-64
2023/10/16 06:50:05;;;;;;;10.25;6.70;;;;;;;6.50;70.08;101283.59;4149884;28;20492;-62
2023/10/16 06:52:12;;;;;;;13.45;6.53;;;;;;;6.64;69.39;101277.31;4147715;28;20057;-63
2023/10/16 06:54:17;;;;;;;14.13;6.65;;;;;;;6.69;69.35;101274.03;4147900;28;20095;-61
2023/10/16 06:56:31;;;;;;;9.35;5.85;;;;;;;6.72;69.12;101281.94;4146151;28;20034;-63
2023/10/16 06:58:34;;;;;;;7.97;4.90;;;;;;;6.77;68.25;101283.88;4146651;28;20627;-63
2023/10/16 07:00:38;;;;;;;8.80;4.60;;;;;;;6.75;68.72;101287.25;4145116;28;20038;-62
2023/10/16 07:02:42;;;;;;;9.32;5.50;;;;;;;6.62;68.85;101286.69;4146304;28;20045;-63
2023/10/16 07:04:46;;;;;;;11.35;4.95;;;;;;;6.60;69.01;101283.16;4146773;28;20046;-62
2023/10/16 07:06:49;;;;;;;9.63;5.00;;;;;;;6.51;69.34;101282.75;4145336;28;20439;-62
2023/10/16 07:08:52;;;;;;;11.45;5.47;;;;;;;6.53;69.57;101290.59;4146952;28;20295;-63
2023/10/16 07:10:56;;;;;;;9.30;5.18;;;;;;;6.55;69.23;101289.81;4149933;28;20128;-65
2023/10/16 07:13:00;;;;;;;12.07;6.03;;;;;;;6.57;69.64;101295.06;4149958;28;20480;-64
2023/10/16 07:15:05;;;;;;;18.63;8.77;;;;;;;6.64;69.35;101290.25;4146796;28;20056;-63
2023/10/16 07:17:08;;;;;;;17.83;9.10;;;;;;;6.77;68.62;101289.03;4149528;28;20408;-62
2023/10/16 07:19:16;;;;;;;9.88;5.63;;;;;;;6.77;68.30;101283.00;4147839;28;20080;-63
2023/10/16 07:21:19;;;;;;;12.40;5.63;;;;;;;6.72;68.47;101289.69;4148647;28;20764;-63
2023/10/16 07:23:24;;;;;;;11.60;5.55;;;;;;;6.79;68.63;101290.00;4148607;28;20034;-62
2023/10/16 07:25:37;;;;;;;11.27;7.43;;;;;;;6.73;68.94;101299.19;4147518;28;20133;-63
2023/10/16 07:27:41;;;;;;;15.57;8.82;;;;;;;6.94;68.74;101292.38;4148132;28;20034;-63
2023/10/16 07:29:44;;;;;;;14.02;7.88;;;;;;;7.01;68.15;101297.78;4149283;28;20046;-63
2023/10/16 07:31:49;;;;;;;9.85;5.78;;;;;;;6.87;68.07;101290.34;4151969;28;20585;-63
2023/10/16 07:33:59;;;;;;;10.77;5.47;;;;;;;6.82;68.42;101290.13;4149172;28;20073;-63
2023/10/16 07:36:10;;;;;;;9.85;5.65;;;;;;;6.96;68.03;101292.44;4149124;28;20092;-63
2023/10/16 07:38:19;;;;;;;11.38;5.57;;;;;;;6.98;68.06;101301.16;4146850;28;20038;-63
2023/10/16 07:40:23;;;;;;;12.73;6.50;;;;;;;6.98;68.03;101294.25;4149563;28;20046;-63
2023/10/16 07:42:26;;;;;;;10.20;5.68;;;;;;;7.06;68.10;101296.28;4149645;28;20111;-63
2023/10/16 07:44:35;;;;;;;10.75;6.15;;;;;;;7.09;67.55;101292.13;4149544;28;20050;-64
2023/10/16 07:46:38;;;;;;;10.13;6.10;;;;;;;6.97;68.13;101289.91;4149388;28;20053;-63
2023/10/16 07:48:42;;;;;;;8.20;5.63;;;;;;;6.95;68.52;101295.81;4149220;28;20048;-64
2023/10/16 07:50:45;;;;;;;9.65;5.15;;;;;;;7.08;68.24;101295.53;4149432;28;20046;-64
2023/10/16 07:52:48;;;;;;;7.90;4.90;;;;;;;7.12;67.70;101294.81;4148421;28;20492;-64
2023/10/16 07:54:51;;;;;;;10.45;4.95;;;;;;;7.25;67.27;101295.34;4148792;28;20471;-64
2023/10/16 07:56:55;;;;;;;10.85;7.38;;;;;;;7.40;66.79;101300.25;4148676;28;20034;-63
2023/10/16 07:59:07;;;;;;;10.70;5.82;;;;;;;7.36;66.54;101303.53;4152998;28;20062;-63
2023/10/16 08:01:32;;;;;;;39.58;25.08;;;;;;;7.39;66.69;101298.50;4147455;28;20132;-63
2023/10/16 08:03:36;;;;;;;12.85;6.28;;;;;;;7.30;66.80;101293.81;4147228;28;20045;-63
2023/10/16 08:05:47;;;;;;;14.23;10.50;;;;;;;7.20;67.86;101296.84;4148846;28;20077;-63
2023/10/16 08:07:52;;;;;;;12.63;6.30;;;;;;;7.19;68.21;101301.16;4139982;28;20041;-63
2023/10/16 08:10:28;;;;;;;9.18;5.72;;;;;;;7.38;67.91;101304.50;4145018;28;20050;-63
2023/10/16 08:12:33;;;;;;;21.83;6.93;;;;;;;7.44;67.62;101294.41;4147961;28;20041;-63
2023/10/16 08:14:36;;;;;;;12.82;6.07;;;;;;;7.22;68.67;101300.41;4146980;28;20038;-63
2023/10/16 08:16:40;;;;;;;12.20;7.07;;;;;;;7.39;68.68;101308.84;4148279;28;20030;-63
2023/10/16 08:18:44;;;;;;;13.57;5.95;;;;;;;7.41;68.41;101304.63;4144237;28;20038;-63
2023/10/16 08:21:00;;;;;;;15.20;6.25;;;;;;;7.47;68.41;101303.16;4147728;28;20042;-63
2023/10/16 08:23:05;;;;;;;19.65;7.70;;;;;;;7.52;67.57;101308.53;4148449;28;20045;-63
2023/10/16 08:25:07;;;;;;;13.45;6.47;;;;;;;7.60;67.57;101304.53;4147941;28;20492;-64
2023/10/16 08:27:19;;;;;;;12.10;6.80;;;;;;;7.66;66.90;101304.78;4147592;28;20041;-63
2023/10/16 08:29:25;;;;;;;19.08;7.53;;;;;;;7.66;67.40;101304.78;4147759;28;20041;-63
2023/10/16 08:31:31;;;;;;;13.45;7.22;;;;;;;7.64;67.50;101306.44;4145760;28;20125;-64
2023/10/16 08:33:36;;;;;;;14.07;7.60;;;;;;;7.85;66.82;101314.13;4151168;28;20044;-64
2023/10/16 08:35:39;;;;;;;13.10;7.43;;;;;;;7.94;67.08;101311.03;4147942;28;20100;-63
2023/10/16 08:37:42;;;;;;;23.33;8.07;;;;;;;7.81;67.19;101307.09;4147456;28;20129;-63
2023/10/16 08:39:48;;;;;;;15.57;7.60;;;;;;;8.00;66.60;101306.09;4147535;28;20057;-63
2023/10/16 08:42:01;;;;;;;11.75;6.90;;;;;;;7.93;66.54;101304.09;4148104;28;20038;-63
2023/10/16 08:44:04;;;;;;;19.63;7.75;;;;;;;7.90;66.78;101303.09;4145245;28;20581;-63
2023/10/16 08:46:18;;;;;;;12.00;7.18;;;;;;;7.81;67.37;101301.03;4147609;28;20088;-63
2023/10/16 08:48:24;;;;;;;16.38;8.23;;;;;;;7.87;67.47;101298.69;4147469;28;20060;-63
2023/10/16 08:50:41;;;;;;;14.93;7.32;;;;;;;8.00;67.29;101300.94;4143718;28;20373;-63
2023/10/16 08:52:50;;;;;;;17.90;8.27;;;;;;;8.01;67.68;101297.50;4147523;28;20038;-63
2023/10/16 08:55:01;;;;;;;11.75;7.53;;;;;;;8.06;66.92;101297.69;4143679;28;20096;-63
2023/10/16 08:57:07;;;;;;;13.88;7.07;;;;;;;8.20;66.10;101299.06;4143619;28;20069;-64
2023/10/16 08:59:15;;;;;;;20.60;7.45;;;;;;;8.24;66.14;101294.03;4147197;28;20041;-63
2023/10/16 09:01:19;;;;;;;13.13;6.88;;;;;;;8.26;66.09;101292.38;4147423;28;20045;-63
2023/10/16 09:03:24;;;;;;;16.48;6.53;;;;;;;8.26;66.26;101287.19;4147480;28;20057;-64
2023/10/16 09:05:27;;;;;;;12.63;7.00;;;;;;;8.42;65.96;101288.63;4147382;28;20496;-63
2023/10/16 09:07:34;;;;;;;9.60;6.07;;;;;;;8.48;65.34;101294.06;4146252;28;20045;-63
2023/10/16 09:09:41;;;;;;;12.40;6.22;;;;;;;8.54;65.28;101289.09;4143475;28;20042;-64
2023/10/16 09:11:46;;;;;;;15.52;5.85;;;;;;;8.87;63.33;101289.41;4147393;28;20033;-64
2023/10/16 09:13:51;;;;;;;10.05;5.45;;;;;;;8.91;62.60;101280.91;4146064;28;20119;-64
2023/10/16 09:15:57;;;;;;;10.38;5.15;;;;;;;8.76;63.35;101295.03;4147161;28;20049;-63
2023/10/16 09:18:00;;;;;;;13.35;5.43;;;;;;;8.62;64.20;101286.78;4145875;28;20096;-63
2023/10/16 09:20:12;;;;;;;11.48;5.82;;;;;;;8.67;64.41;101293.91;4151049;28;20046;-63
2023/10/16 09:22:17;;;;;;;10.35;5.90;;;;;;;8.76;64.26;101279.50;4143177;28;20511;-63
2023/10/16 09:24:21;;;;;;;11.25;5.32;;;;;;;9.06;63.02;101285.72;4146530;28;20042;-63
2023/10/16 09:26:28;;;;;;;15.40;5.00;;;;;;;8.98;63.39;101282.00;4147162;28;20053;-63
2023/10/16 09:28:32;;;;;;;16.80;6.03;;;;;;;9.19;63.21;101280.97;4146866;28;20037;-63
2023/10/16 09:30:35;;;;;;;14.55;5.22;;;;;;;9.47;61.43;101284.44;4128759;28;20046;-63
2023/10/16 09:32:39;;;;;;;7.88;4.78;;;;;;;9.33;62.61;101269.31;4147159;28;20034;-63
2023/10/16 09:34:43;;;;;;;11.25;5.38;;;;;;;9.49;62.56;101278.47;4147005;28;20045;-63
2023/10/16 09:36:48;;;;;;;9.15;5.60;;;;;;;9.63;61.40;101268.50;4145845;28;20026;-62
2023/10/16 09:38:51;;;;;;;11.88;5.45;;;;;;;9.71;61.65;101274.84;4146655;28;20550;-63
2023/10/16 09:43:25;;;;;;;10.18;5.63;;;;;;;9.83;60.81;101276.03;4146719;28;20042;-63
2023/10/16 09:45:29;;;;;;;12.18;5.40;;;;;;;9.97;60.47;101274.72;4146976;28;20121;-63
2023/10/16 09:47:35;;;;;;;10.13;4.95;;;;;;;10.07;59.91;101268.97;4146631;28;20076;-63
2023/10/16 09:49:38;;;;;;;10.73;5.32;;;;;;;10.14;59.29;101262.25;4147421;28;20123;-63
2023/10/16 09:51:40;;;;;;;11.88;5.07;;;;;;;10.07;60.01;101261.16;4142068;28;20049;-63
2023/10/16 09:53:57;;;;;;;10.65;4.47;;;;;;;10.22;60.05;101257.25;4144043;28;20030;-64
2023/10/16 09:56:03;;;;;;;8.82;4.38;;;;;;;10.24;59.10;101263.41;4147439;28;20121;-63
2023/10/16 09:58:07;;;;;;;7.90;4.10;;;;;;;10.33;59.24;101262.78;4146752;28;20562;-63
2023/10/16 10:00:28;;;;;;;12.18;4.70;;;;;;;10.56;57.86;101251.31;4146977;28;20488;-64
2023/10/16 10:02:37;;;;;;;12.65;4.78;;;;;;;10.62;58.02;101255.81;4143275;28;20046;-64
2023/10/16 10:04:43;;;;;;;8.85;4.35;;;;;;;10.74;56.76;101242.25;4142043;28;20370;-64
2023/10/16 10:06:53;;;;;;;11.02;4.60;;;;;;;10.75;56.80;101257.03;4149931;28;20041;-63
2023/10/16 10:11:26;;;;;;;10.60;4.28;;;;;;;10.78;56.70;101252.75;4146984;28;20488;-63
2023/10/16 10:13:34;;;;;;;10.65;3.95;;;;;;;10.77;56.89;101251.00;4146910;28;20056;-64
2023/10/16 10:15:40;;;;;;;10.52;3.92;;;;;;;10.98;56.83;101255.00;4146941;28;20392;-64
2023/10/16 10:17:44;;;;;;;7.03;3.38;;;;;;;11.20;54.06;101239.91;4146709;28;20222;-64
2023/10/16 10:19:54;;;;;;;7.68;3.17;;;;;;;11.05;55.21;101241.28;4146648;28;20056;-64
2023/10/16 10:21:58;;;;;;;4.80;2.83;;;;;;;11.05;55.03;101240.41;4146751;28;20074;-64
2023/10/16 10:24:08;;;;;;;6.90;3.08;;;;;;;11.18;55.32;101232.97;4147223;28;20038;-64
2023/10/16 10:26:18;;;;;;;8.55;3.40;;;;;;;11.38;55.76;101239.50;4146667;28;20455;-63
2023/10/16 10:28:25;;;;;;;9.63;4.20;;;;;;;11.52;53.62;101233.75;4146323;28;20092;-64
2023/10/16 10:30:28;;;;;;;7.05;3.10;;;;;;;11.46;54.34;101228.41;4146766;28;20046;-63
2023/10/16 10:32:32;;;;;;;6.07;2.78;;;;;;;11.51;53.71;101226.78;4146604;28;20472;-63
2023/10/16 10:34:35;;;;;;;6.30;3.23;;;;;;;11.63;54.61;101225.31;4145544;28;20468;-65
2023/10/16 10:36:39;;;;;;;11.38;3.25;;;;;;;11.92;51.41;101225.06;4145412;28;20061;-64
2023/10/16 10:38:46;;;;;;;9.95;3.10;;;;;;;11.84;50.88;101217.97;4149309;28;20488;-63
2023/10/16 10:41:17;;;;;;;4.50;1.90;;;;;;;11.66;51.54;101222.75;4148990;28;20477;-63
2023/10/16 10:43:39;;;;;;;4.82;2.13;;;;;;;11.69;51.58;101221.09;4125865;28;20054;-63
2023/10/16 10:45:45;;;;;;;6.55;2.38;;;;;;;11.69;51.21;101212.41;4149541;28;20042;-64
2023/10/16 10:47:47;;;;;;;5.65;2.80;;;;;;;11.76;50.98;101210.81;4131635;28;20061;-64
2023/10/16 10:49:53;;;;;;;6.13;2.40;;;;;;;11.88;50.04;101216.28;4145570;28;20042;-63
2023/10/16 10:51:56;;;;;;;4.82;2.58;;;;;;;11.88;49.90;101211.97;4149711;28;20058;-63
2023/10/16 10:54:01;;;;;;;3.80;2.47;;;;;;;11.94;49.15;101194.72;4143475;28;20093;-63
2023/10/16 10:56:07;;;;;;;5.47;2.30;;;;;;;11.77;50.33;101192.63;4145851;28;20076;-63
2023/10/16 10:58:12;;;;;;;4.68;2.20;;;;;;;11.76;49.69;101189.97;4149111;28;20449;-63
2023/10/16 11:02:52;;;;;;;5.93;2.20;;;;;;;11.78;49.61;101173.50;4145636;28;20037;-64
2023/10/16 11:04:58;;;;;;;3.10;1.98;;;;;;;11.81;49.04;101171.00;4144740;28;20048;-64
2023/10/16 11:07:11;;;;;;;5.65;2.10;;;;;;;11.84;49.92;101171.06;4148961;28;20124;-63
2023/10/16 11:09:18;;;;;;;4.45;2.20;;;;;;;11.90;49.91;101166.81;4149127;28;20038;-63
2023/10/16 11:11:21;;;;;;;5.90;2.20;;;;;;;11.95;49.76;101165.22;4149249;28;20042;-64